Time;durP1;ratioP1;P1;durP2;ratioP2;P2;SDS_P1;SDS_P2;PMS_P1;PMS_P2;Temp;Humidity;BMP_temperature;BMP_pressure;BME280_temperature;BME280_humidity;BME280_pressure;Samples;Min_cycle;Max_cycle;Signal;HPM_P1;HPM_P2
2022/05/14 00:01:36;;;;;;;8.45;4.00;;;;;;;-148.88;68.73;76067.69;5033123;28;20026;-86
2022/05/14 00:04:02;;;;;;;6.00;3.97;;;;;;;-148.88;68.44;76057.53;5015519;28;20022;-87
2022/05/14 00:06:29;;;;;;;10.38;4.53;;;;;;;-148.88;68.64;76055.50;5015324;28;20056;-87
2022/05/14 00:08:55;;;;;;;11.02;4.13;;;;;;;-148.88;68.37;76053.47;5033372;28;20029;-87
2022/05/14 00:14:07;;;;;;;12.02;3.80;;;;;;;-148.88;68.75;76045.34;5033452;28;20083;-87
2022/05/14 00:16:34;;;;;;;11.00;3.83;;;;;;;-148.88;69.16;76049.41;5015254;28;20479;-85
2022/05/14 00:19:01;;;;;;;8.77;3.92;;;;;;;-148.88;69.29;76045.34;5015331;28;20064;-87
2022/05/14 00:21:27;;;;;;;10.13;4.07;;;;;;;-148.88;69.15;76045.34;5033450;28;20037;-88
2022/05/14 00:23:52;;;;;;;8.02;4.10;;;;;;;-148.88;69.23;76045.34;5015313;28;20018;-88
2022/05/14 00:26:18;;;;;;;9.98;4.53;;;;;;;-148.88;69.41;76045.34;5015297;28;20029;-86
2022/05/14 00:28:43;;;;;;;12.35;4.22;;;;;;;-148.88;69.16;76033.16;5015540;28;20083;-87
2022/05/14 00:31:09;;;;;;;8.38;3.70;;;;;;;-148.88;69.54;76041.28;5034223;28;20040;-86
2022/05/14 00:33:35;;;;;;;9.82;3.63;;;;;;;-148.88;69.26;76049.41;5018773;28;20104;-88
2022/05/14 00:36:00;;;;;;;8.75;3.25;;;;;;;-148.88;68.06;76043.31;5019867;28;20021;-87
2022/05/14 00:38:25;;;;;;;9.05;3.03;;;;;;;-148.88;67.50;76041.28;5018969;28;20032;-87
2022/05/14 00:40:57;;;;;;;9.98;3.30;;;;;;;-148.88;66.40;76033.16;5019684;28;20026;-87
2022/05/14 00:43:23;;;;;;;11.38;3.53;;;;;;;-148.88;66.34;76033.16;5018776;28;20036;-86
2022/05/14 00:46:13;;;;;;;8.02;3.28;;;;;;;-148.88;65.73;76025.03;5018809;28;20049;-87
2022/05/14 00:48:41;;;;;;;9.50;3.88;;;;;;;-148.88;66.05;76029.09;5019460;28;20060;-86
2022/05/14 00:51:11;;;;;;;9.85;3.58;;;;;;;-148.88;66.02;76037.22;5018790;28;20021;-87
2022/05/14 00:53:42;;;;;;;9.55;3.30;;;;;;;-148.88;65.88;76031.13;5018747;28;20033;-86
2022/05/14 00:56:13;;;;;;;6.75;3.20;;;;;;;-148.88;66.38;76045.34;5019217;28;20056;-85
2022/05/14 00:58:47;;;;;;;9.90;3.20;;;;;;;-148.88;65.73;76031.13;5019249;28;20035;-87
2022/05/14 01:01:13;;;;;;;8.32;3.42;;;;;;;-148.88;65.83;76041.28;5019292;28;20032;-86
2022/05/14 01:03:38;;;;;;;6.50;3.55;;;;;;;-148.88;65.71;76037.22;5017063;28;20036;-86
2022/05/14 01:06:08;;;;;;;7.97;3.33;;;;;;;-148.88;66.24;76049.41;5018417;28;20029;-87
2022/05/14 01:08:35;;;;;;;7.78;3.60;;;;;;;-148.88;66.18;76051.44;5018515;28;20052;-87
2022/05/14 01:11:00;;;;;;;7.57;3.20;;;;;;;-148.88;66.61;76055.50;5018354;28;20124;-86
2022/05/14 01:13:26;;;;;;;8.02;3.50;;;;;;;-148.88;67.07;76069.72;5060812;22;20073;-87
2022/05/14 01:15:58;;;;;;;7.03;3.30;;;;;;;-148.88;67.67;76077.84;5038676;28;20105;-90
2022/05/14 01:18:26;;;;;;;8.27;3.85;;;;;;;-148.88;67.93;76085.97;5037370;28;20059;-89
2022/05/14 01:21:05;;;;;;;8.27;3.47;;;;;;;-148.88;67.78;76085.97;5038686;28;20155;-90
2022/05/14 01:26:40;;;;;;;8.60;3.35;;;;;;;-148.88;68.20;76090.03;5037118;28;20032;-89
2022/05/14 01:29:19;;;;;;;9.02;3.33;;;;;;;-148.88;68.64;76102.22;5036232;28;20026;-90
2022/05/14 01:31:45;;;;;;;8.98;3.72;;;;;;;-148.88;69.33;76120.53;5036753;28;20113;-88
2022/05/14 01:34:16;;;;;;;10.65;4.38;;;;;;;-148.88;69.67;76126.59;5036062;28;20047;-88
2022/05/14 01:36:42;;;;;;;9.50;4.80;;;;;;;-148.88;70.71;76134.72;5036659;28;20022;-88
2022/05/14 01:39:08;;;;;;;11.75;5.57;;;;;;;-148.88;71.10;76140.84;5035617;28;20030;-88
2022/05/14 01:41:34;;;;;;;13.98;5.10;;;;;;;-148.88;71.19;76146.94;5035082;28;20048;-90
2022/05/14 01:44:00;;;;;;;9.45;5.55;;;;;;;-148.88;70.80;76140.84;5035933;28;20025;-88
2022/05/14 01:46:25;;;;;;;9.38;4.97;;;;;;;-148.88;71.20;76146.94;5035579;28;20021;-89
2022/05/14 01:48:51;;;;;;;10.50;4.75;;;;;;;-148.88;71.82;76153.03;5036359;28;20033;-90
2022/05/14 01:51:17;;;;;;;9.07;4.78;;;;;;;-148.88;71.92;76159.13;5035467;28;20029;-89
2022/05/14 01:53:43;;;;;;;12.82;5.50;;;;;;;-148.88;72.60;76159.13;5042474;28;20048;-91
2022/05/14 01:56:08;;;;;;;9.93;5.20;;;;;;;-148.88;73.34;76171.31;5039960;28;20398;-92
2022/05/14 01:58:36;;;;;;;10.85;5.88;;;;;;;-148.88;73.71;76181.47;5018831;28;20029;-89
2022/05/14 02:01:06;;;;;;;14.35;6.38;;;;;;;-148.88;74.10;76175.38;5019336;28;20018;-90
2022/05/14 02:03:31;;;;;;;13.93;7.57;;;;;;;-148.88;74.61;76191.63;5037419;28;20031;-88
2022/05/14 02:05:57;;;;;;;14.95;7.07;;;;;;;-148.88;74.56;76191.63;5037048;28;20461;-91
2022/05/14 02:08:22;;;;;;;17.05;7.30;;;;;;;-148.88;74.83;76191.63;5039318;28;20073;-89
2022/05/14 02:10:48;;;;;;;13.75;7.63;;;;;;;-148.88;75.17;76191.63;5042233;28;20025;-89
2022/05/14 02:13:17;;;;;;;14.23;7.60;;;;;;;-148.88;75.09;76195.69;5042736;28;20106;-91
2022/05/14 02:15:44;;;;;;;14.55;8.13;;;;;;;-148.88;75.53;76205.84;5039437;28;20029;-89
2022/05/14 02:18:11;;;;;;;12.93;7.45;;;;;;;-148.88;74.68;76189.59;5037569;28;20063;-91
2022/05/14 02:20:36;;;;;;;20.40;9.15;;;;;;;-148.88;74.74;76191.63;5035934;28;20021;-90
2022/05/14 02:23:01;;;;;;;15.27;8.20;;;;;;;-148.88;74.78;76187.56;5035204;28;20036;-89
2022/05/14 02:25:27;;;;;;;14.90;7.60;;;;;;;-148.88;74.91;76175.38;5038731;28;20052;-89
2022/05/14 02:27:52;;;;;;;17.60;7.85;;;;;;;-148.88;75.06;76187.56;5035364;28;20032;-91
2022/05/14 02:30:17;;;;;;;14.27;7.65;;;;;;;-148.88;75.55;76191.63;5036015;28;20104;-89
2022/05/14 02:32:43;;;;;;;18.10;8.15;;;;;;;-148.88;75.84;76183.50;5035093;28;20048;-88
2022/05/14 02:35:09;;;;;;;15.57;7.95;;;;;;;-148.88;75.00;76191.63;5035320;28;20021;-91
2022/05/14 02:37:34;;;;;;;14.38;8.23;;;;;;;-148.88;75.53;76203.81;5016510;28;20394;-88
2022/05/14 02:39:59;;;;;;;15.82;7.43;;;;;;;-148.88;75.27;76207.88;5034747;28;20028;-91
2022/05/14 02:42:25;;;;;;;11.95;6.95;;;;;;;-148.88;75.31;76216.00;5035332;28;20506;-88
2022/05/14 02:44:50;;;;;;;14.73;7.57;;;;;;;-148.88;75.30;76222.09;5016741;28;20017;-88
2022/05/14 02:47:17;;;;;;;12.25;7.13;;;;;;;-148.88;75.13;76216.00;5035454;28;20116;-89
2022/05/14 02:49:42;;;;;;;15.15;7.25;;;;;;;-148.88;75.58;76226.16;5035431;28;20178;-90
2022/05/14 02:52:09;;;;;;;13.00;7.38;;;;;;;-148.88;75.35;76230.22;5034737;28;20064;-90
2022/05/14 02:54:36;;;;;;;13.85;7.47;;;;;;;-148.88;75.06;76220.06;5034689;28;20025;-90
2022/05/14 02:57:01;;;;;;;15.20;7.35;;;;;;;-148.88;75.70;76222.09;5034298;28;20024;-89
2022/05/14 02:59:26;;;;;;;11.80;7.25;;;;;;;-148.88;75.64;76213.97;5017027;28;20398;-89
2022/05/14 03:01:52;;;;;;;14.35;7.43;;;;;;;-148.88;75.72;76209.91;5034879;28;20471;-90
2022/05/14 03:04:29;;;;;;;13.60;7.05;;;;;;;-148.88;75.60;76205.84;5034864;28;20478;-88
2022/05/14 03:06:56;;;;;;;14.95;7.20;;;;;;;-148.88;76.29;76228.19;5035418;28;20029;-91
2022/05/14 03:09:22;;;;;;;13.15;7.50;;;;;;;-148.88;76.86;76224.13;5017362;28;20029;-90
2022/05/14 03:11:48;;;;;;;10.70;7.13;;;;;;;-148.88;76.65;76205.84;5034869;28;20036;-89
2022/05/14 03:14:14;;;;;;;15.95;7.75;;;;;;;-148.88;76.38;76203.81;5034110;28;20031;-89
2022/05/14 03:16:40;;;;;;;16.80;8.40;;;;;;;-148.88;77.12;76211.94;5034044;28;20412;-90
2022/05/14 03:19:06;;;;;;;13.57;7.60;;;;;;;-148.88;76.69;76205.84;5034235;28;20053;-89
2022/05/14 03:21:31;;;;;;;17.52;7.57;;;;;;;-148.88;76.39;76207.88;5034485;28;20087;-91
2022/05/14 03:23:56;;;;;;;15.52;8.23;;;;;;;-148.88;76.63;76216.00;5035535;28;20040;-89
2022/05/14 03:26:22;;;;;;;18.27;8.10;;;;;;;-148.88;76.69;76211.94;5033962;28;20036;-89
2022/05/14 03:28:48;;;;;;;16.73;7.78;;;;;;;-148.88;77.09;76203.81;5034222;28;20025;-88
2022/05/14 03:31:14;;;;;;;17.58;8.75;;;;;;;-148.88;77.90;76207.88;5034295;28;20025;-90
2022/05/14 03:33:39;;;;;;;12.82;7.35;;;;;;;-148.88;77.61;76209.91;5033760;28;20034;-89
2022/05/14 03:36:05;;;;;;;14.93;8.93;;;;;;;-148.88;77.82;76213.97;5034159;28;20101;-87
2022/05/14 03:38:30;;;;;;;15.60;8.23;;;;;;;-148.88;77.87;76216.00;5034146;28;20021;-89
2022/05/14 03:40:56;;;;;;;20.45;9.05;;;;;;;-148.88;77.83;76211.94;5033763;28;20025;-88
2022/05/14 03:43:21;;;;;;;16.75;8.77;;;;;;;-148.88;77.70;76213.97;5033732;28;20021;-88
2022/05/14 03:45:46;;;;;;;18.40;9.13;;;;;;;-148.88;77.96;76220.06;5033565;28;20068;-88
2022/05/14 03:48:12;;;;;;;18.48;9.30;;;;;;;-148.88;78.30;76224.13;5033787;28;20083;-90
2022/05/14 03:50:37;;;;;;;17.58;8.80;;;;;;;-148.88;78.82;76224.13;5034049;28;20417;-89
2022/05/14 03:53:02;;;;;;;19.38;9.13;;;;;;;-148.88;78.51;76211.94;5034329;28;20056;-88
2022/05/14 03:55:28;;;;;;;18.58;9.40;;;;;;;-148.88;79.23;76226.16;5034072;28;20022;-89
2022/05/14 03:57:53;;;;;;;17.48;9.55;;;;;;;-148.88;79.69;76224.13;5034048;28;20479;-88
2022/05/14 04:00:19;;;;;;;14.80;8.55;;;;;;;-148.88;79.54;76228.19;5034463;28;20029;-88
2022/05/14 04:02:45;;;;;;;17.98;9.77;;;;;;;-148.88;78.93;76220.06;5016833;28;20044;-88
2022/05/14 04:05:11;;;;;;;17.23;9.38;;;;;;;-148.88;79.72;76236.31;5035150;28;20031;-86
2022/05/14 04:07:37;;;;;;;18.10;9.32;;;;;;;-148.88;80.10;76236.31;5037994;28;20104;-89
2022/05/14 04:10:04;;;;;;;15.68;9.38;;;;;;;-148.88;81.06;76246.47;5037296;28;20108;-89
2022/05/14 04:12:29;;;;;;;18.42;9.05;;;;;;;-148.88;80.94;76250.53;5019220;28;20613;-90
2022/05/14 04:14:54;;;;;;;16.15;8.88;;;;;;;-148.88;80.93;76240.38;5038084;28;20029;-87
2022/05/14 04:17:20;;;;;;;16.65;8.30;;;;;;;-148.88;80.93;76246.47;5037620;28;20032;-89
2022/05/14 04:19:45;;;;;;;14.82;8.45;;;;;;;-148.88;80.93;76242.41;5037409;28;20437;-90
2022/05/14 04:22:10;;;;;;;18.15;8.35;;;;;;;-148.88;80.30;76236.31;5020261;28;20057;-90
2022/05/14 04:24:36;;;;;;;16.70;8.18;;;;;;;-148.88;79.65;76228.19;5020126;28;20021;-90
2022/05/14 04:27:02;;;;;;;15.13;7.68;;;;;;;-148.88;80.13;76230.22;5037866;28;20036;-88
2022/05/14 04:29:27;;;;;;;16.42;7.88;;;;;;;-148.88;79.12;76211.94;5037209;28;20025;-88
2022/05/14 04:31:52;;;;;;;16.58;8.00;;;;;;;-148.88;79.67;76224.13;5036872;28;20022;-88
2022/05/14 04:34:18;;;;;;;16.30;7.97;;;;;;;-148.88;79.24;76211.94;5037303;28;20083;-90
2022/05/14 04:36:43;;;;;;;16.25;7.70;;;;;;;-148.88;79.25;76218.03;5037985;28;20075;-89
2022/05/14 04:39:09;;;;;;;15.40;7.65;;;;;;;-148.88;78.84;76211.94;5020420;28;20482;-89
2022/05/14 04:41:34;;;;;;;12.88;7.97;;;;;;;-148.88;79.12;76218.03;5037966;28;20083;-88
2022/05/14 04:43:59;;;;;;;15.40;7.32;;;;;;;-148.88;79.09;76207.88;5040466;28;20025;-90
2022/05/14 04:46:25;;;;;;;14.13;7.57;;;;;;;-148.88;79.14;76220.06;5038208;28;20075;-89
2022/05/14 04:48:50;;;;;;;20.70;8.60;;;;;;;-148.88;78.67;76216.00;5022320;28;20049;-87
2022/05/14 04:51:16;;;;;;;15.18;7.25;;;;;;;-148.88;79.04;76209.91;5037829;28;20029;-89
2022/05/14 04:53:41;;;;;;;18.33;7.95;;;;;;;-148.88;79.35;76218.03;5038267;28;20104;-89
2022/05/14 04:56:07;;;;;;;14.73;7.47;;;;;;;-148.88;79.48;76216.00;5038267;28;20364;-89
2022/05/14 04:58:32;;;;;;;15.55;7.18;;;;;;;-148.88;79.17;76224.13;5037256;28;20071;-88
2022/05/14 05:00:58;;;;;;;15.23;7.32;;;;;;;-148.88;78.74;76199.75;5037435;28;20028;-88
2022/05/14 05:03:24;;;;;;;16.40;7.18;;;;;;;-148.88;79.13;76207.88;5037834;28;20033;-88
2022/05/14 05:05:53;;;;;;;16.17;7.15;;;;;;;-148.88;78.59;76199.75;5037057;28;20022;-88
2022/05/14 05:08:19;;;;;;;16.60;7.10;;;;;;;-148.88;78.86;76199.75;5036807;28;20029;-87
2022/05/14 05:10:45;;;;;;;13.95;6.82;;;;;;;-148.88;78.89;76195.69;5037674;28;20030;-89
2022/05/14 05:13:13;;;;;;;14.93;6.30;;;;;;;-148.88;79.31;76199.75;5036960;28;20080;-92
2022/05/14 05:15:39;;;;;;;12.85;6.95;;;;;;;-148.88;79.59;76211.94;5038694;28;20049;-86
2022/05/14 05:18:06;;;;;;;12.32;6.88;;;;;;;-148.88;79.48;76211.94;5035758;28;20544;-86
2022/05/14 05:20:32;;;;;;;13.02;6.45;;;;;;;-148.88;78.91;76197.72;5019418;28;20025;-86
2022/05/14 05:22:57;;;;;;;15.35;6.70;;;;;;;-148.88;77.90;76191.63;5036484;28;20390;-87
2022/05/14 05:25:23;;;;;;;13.23;5.93;;;;;;;-148.88;78.15;76191.63;5036503;28;20071;-85
2022/05/14 05:27:48;;;;;;;15.95;6.95;;;;;;;-148.88;78.28;76187.56;5036353;28;20138;-85
2022/05/14 05:30:13;;;;;;;14.00;6.25;;;;;;;-148.88;77.15;76167.25;5036995;28;20057;-84
2022/05/14 05:32:39;;;;;;;15.07;6.38;;;;;;;-148.88;77.17;76155.06;5022580;28;20585;-83
2022/05/14 05:35:05;;;;;;;14.68;5.97;;;;;;;-148.88;76.34;76161.16;5039318;28;20036;-83
2022/05/14 05:37:30;;;;;;;15.02;6.40;;;;;;;-148.88;76.22;76167.25;5038590;28;20456;-84
2022/05/14 05:39:55;;;;;;;14.88;6.05;;;;;;;-148.88;76.94;76169.28;5041608;28;20044;-83
2022/05/14 05:42:20;;;;;;;14.25;6.28;;;;;;;-148.88;77.12;76171.31;5018699;28;20103;-83
2022/05/14 05:44:46;;;;;;;14.52;5.82;;;;;;;-148.88;76.89;76163.19;5036494;28;20029;-83
2022/05/14 05:47:11;;;;;;;18.40;6.88;;;;;;;-148.88;76.74;76157.09;5019777;28;20033;-83
2022/05/14 05:49:40;;;;;;;14.65;6.15;;;;;;;-148.88;76.75;76155.06;5020445;28;20363;-82
2022/05/14 05:52:06;;;;;;;16.90;6.65;;;;;;;-148.88;76.87;76148.97;5039041;28;20426;-83
2022/05/14 05:57:16;;;;;;;15.73;6.93;;;;;;;-148.88;76.67;76148.97;5038374;28;20028;-84
2022/05/14 05:59:41;;;;;;;15.85;6.65;;;;;;;-148.88;76.42;76146.94;5038514;28;20383;-82
2022/05/14 06:02:08;;;;;;;13.32;6.50;;;;;;;-148.88;76.50;76146.94;5039431;28;20028;-82
2022/05/14 06:04:34;;;;;;;16.20;6.45;;;;;;;-148.88;75.76;76138.81;5039864;28;20029;-83
2022/05/14 06:07:00;;;;;;;18.95;6.80;;;;;;;-148.88;75.98;76138.81;5040192;28;20108;-84
2022/05/14 06:09:26;;;;;;;15.65;6.10;;;;;;;-148.88;74.96;76138.81;5042269;28;20075;-84
2022/05/14 06:11:52;;;;;;;14.02;6.82;;;;;;;-148.88;76.11;76142.88;5022154;28;20029;-84
2022/05/14 06:14:17;;;;;;;18.27;6.85;;;;;;;-148.88;75.34;76138.81;5037578;28;20026;-84
2022/05/14 06:16:43;;;;;;;13.90;6.70;;;;;;;-148.88;75.78;76118.47;5037373;28;20017;-83
2022/05/14 06:19:09;;;;;;;18.58;6.50;;;;;;;-148.88;75.58;76122.56;5035530;28;20029;-81
2022/05/14 06:21:36;;;;;;;15.32;6.53;;;;;;;-148.88;76.13;76110.34;5017823;28;20033;-84
2022/05/14 06:24:01;;;;;;;13.52;5.72;;;;;;;-148.88;74.58;76108.31;5035677;28;20434;-81
2022/05/14 06:26:27;;;;;;;15.38;7.20;;;;;;;-148.88;75.25;76110.34;5035643;28;20033;-81
2022/05/14 06:28:52;;;;;;;14.93;7.35;;;;;;;-148.88;75.45;76090.03;5036368;28;20053;-80
2022/05/14 06:31:18;;;;;;;11.10;6.32;;;;;;;-148.88;75.35;76102.22;5036087;28;20134;-83
2022/05/14 06:33:45;;;;;;;15.65;6.80;;;;;;;-148.88;75.93;76094.09;5035694;28;20083;-81
2022/05/14 06:36:10;;;;;;;13.18;6.88;;;;;;;-148.88;75.87;76096.13;5037309;28;20075;-80
2022/05/14 06:38:36;;;;;;;19.45;7.18;;;;;;;-148.88;75.21;76094.09;5019475;28;20029;-81
2022/05/14 06:41:06;;;;;;;15.30;7.45;;;;;;;-148.88;74.49;76069.72;5036092;28;20036;-84
2022/05/14 06:43:31;;;;;;;16.88;7.40;;;;;;;-148.88;75.16;76073.78;5037096;28;20025;-85
2022/05/14 06:45:56;;;;;;;18.40;8.07;;;;;;;-148.88;74.80;76081.91;5020012;28;20099;-83
2022/05/14 06:48:22;;;;;;;15.23;7.78;;;;;;;-148.88;74.83;76073.78;5037474;28;20032;-84
2022/05/14 06:50:49;;;;;;;22.45;8.52;;;;;;;-148.88;75.25;76067.69;5038174;28;20430;-85
2022/05/14 06:53:18;;;;;;;21.00;8.63;;;;;;;-148.88;75.70;76077.84;5036057;28;20044;-85
2022/05/14 06:55:46;;;;;;;25.33;9.35;;;;;;;-148.88;76.87;76098.16;5042844;28;20034;-82
2022/05/14 06:58:16;;;;;;;19.35;8.35;;;;;;;-148.88;76.51;76085.97;5036294;28;20018;-85
2022/05/14 07:00:42;;;;;;;25.75;8.63;;;;;;;-148.88;76.16;76075.81;5035985;28;20029;-89
2022/05/14 07:08:36;;;;;;;20.02;8.68;;;;;;;-148.88;75.75;76061.59;5035607;28;20056;-86
2022/05/14 07:11:02;;;;;;;16.90;8.50;;;;;;;-148.88;75.25;76057.53;5035271;28;20021;-86
2022/05/14 07:13:27;;;;;;;16.60;8.68;;;;;;;-148.88;75.74;76065.66;5057092;22;20041;-88
2022/05/14 07:15:53;;;;;;;18.38;8.82;;;;;;;-148.88;76.93;76053.47;5016473;28;20029;-85
2022/05/14 07:18:18;;;;;;;21.02;9.38;;;;;;;-148.88;77.21;76043.31;5016724;28;20035;-86
2022/05/14 07:20:43;;;;;;;18.38;8.98;;;;;;;-148.88;76.55;76041.28;5033998;28;20032;-85
2022/05/14 07:23:09;;;;;;;18.75;9.00;;;;;;;-148.88;75.83;76035.19;5016186;28;20034;-88
2022/05/14 07:25:37;;;;;;;20.25;9.43;;;;;;;-148.88;75.75;76045.34;5034115;28;20029;-87
2022/05/14 07:28:03;;;;;;;17.75;8.50;;;;;;;-148.88;76.05;76035.19;5015966;28;20032;-88
2022/05/14 07:30:28;;;;;;;18.95;9.10;;;;;;;-148.88;74.50;76025.03;5034939;28;20018;-87
2022/05/14 07:32:54;;;;;;;20.20;8.70;;;;;;;-148.88;75.07;76029.09;5034769;28;20021;-88
2022/05/14 07:35:19;;;;;;;18.63;8.43;;;;;;;-148.88;75.23;76020.97;5034044;28;20458;-84
2022/05/14 07:37:50;;;;;;;23.60;9.18;;;;;;;-148.88;74.36;76012.84;5033405;28;20024;-84
2022/05/14 07:40:19;;;;;;;24.10;10.02;;;;;;;-148.88;74.03;76000.66;5015507;28;20116;-85
2022/05/14 07:42:55;;;;;;;21.30;9.23;;;;;;;-148.88;74.40;76002.69;5033483;28;20541;-84
2022/05/14 07:45:32;;;;;;;19.83;9.23;;;;;;;-148.88;73.73;75986.44;5016033;28;20029;-85
2022/05/14 07:48:00;;;;;;;20.27;9.05;;;;;;;-148.88;74.71;75982.38;5033521;28;20445;-85
2022/05/14 07:50:26;;;;;;;22.27;9.20;;;;;;;-148.88;74.26;75955.97;5015962;28;20025;-85
2022/05/14 07:52:52;;;;;;;24.35;9.88;;;;;;;-148.88;72.88;75964.09;5033371;28;20021;-85
2022/05/14 07:55:18;;;;;;;16.77;8.35;;;;;;;-148.88;73.67;75951.91;5016235;28;20025;-85
2022/05/14 07:57:43;;;;;;;22.27;9.60;;;;;;;-148.88;74.04;75960.03;5033976;28;20081;-85
2022/05/14 08:00:09;;;;;;;22.52;9.35;;;;;;;-148.88;74.71;75933.63;5017067;28;20022;-84
2022/05/14 08:02:34;;;;;;;20.10;8.82;;;;;;;-148.88;74.10;75931.59;5015953;28;20107;-85
2022/05/14 08:05:09;;;;;;;21.33;9.00;;;;;;;-148.88;73.22;75919.41;5016610;28;20056;-84
2022/05/14 08:07:35;;;;;;;27.77;8.95;;;;;;;-148.88;73.03;75927.53;5019041;28;20033;-87
2022/05/14 08:10:02;;;;;;;16.90;9.30;;;;;;;-148.88;72.40;75905.19;5017205;28;20445;-86
2022/05/14 08:12:43;;;;;;;21.20;9.15;;;;;;;-148.88;71.95;75923.47;5034260;28;20386;-85
2022/05/14 08:15:11;;;;;;;22.17;9.45;;;;;;;-148.88;73.25;75913.31;5016010;28;20434;-84
2022/05/14 08:17:36;;;;;;;16.15;8.55;;;;;;;-148.88;71.34;75911.28;5033898;28;20036;-80
2022/05/14 08:20:02;;;;;;;19.50;9.07;;;;;;;-148.88;72.25;75907.22;5015983;28;20021;-87
2022/05/14 08:25:11;;;;;;;;;;;;;;;-148.88;73.02;75874.72;5034358;28;20087;-85
2022/05/14 08:27:44;;;;;;;17.27;8.67;;;;;;;-148.88;72.77;75866.59;5019184;28;19917;-84
2022/05/14 08:30:11;;;;;;;21.30;9.27;;;;;;;-148.88;72.56;75850.34;5017610;28;20259;-87
2022/05/14 08:32:37;;;;;;;17.67;8.15;;;;;;;-148.88;70.40;75830.03;5033437;28;20026;-86
2022/05/14 08:35:02;;;;;;;21.15;9.65;;;;;;;-148.88;68.99;75825.97;5016294;28;20124;-89
2022/05/14 08:37:28;;;;;;;19.23;8.90;;;;;;;-148.88;69.21;75801.59;5033258;28;20024;-86
2022/05/14 08:39:53;;;;;;;18.48;7.95;;;;;;;-148.88;67.48;75793.47;5015828;28;20029;-86
2022/05/14 08:42:18;;;;;;;22.73;8.68;;;;;;;-148.88;67.30;75801.59;5034428;28;20066;-88
2022/05/14 08:44:46;;;;;;;21.08;8.35;;;;;;;-148.88;68.20;75775.19;5017402;28;20402;-88
2022/05/14 08:47:26;;;;;;;16.48;8.02;;;;;;;-148.88;68.11;75754.88;5017023;28;20028;-86
2022/05/14 08:49:54;;;;;;;17.40;8.52;;;;;;;-148.88;66.06;75736.59;5016139;28;20482;-86
2022/05/14 08:52:23;;;;;;;17.15;7.90;;;;;;;-148.88;65.63;75726.44;5017726;28;20025;-87
2022/05/14 08:54:52;;;;;;;19.15;8.30;;;;;;;-148.88;65.96;75724.41;5037868;28;20018;-86
2022/05/14 08:57:44;;;;;;;20.70;9.75;;;;;;;-148.88;66.41;75716.28;5020691;28;20530;-86
2022/05/14 09:00:10;;;;;;;18.20;7.60;;;;;;;-148.88;63.36;75691.91;5019528;28;20028;-86
2022/05/14 09:02:57;;;;;;;15.40;6.63;;;;;;;-148.88;60.81;75712.22;5018886;28;20037;-85
2022/05/14 09:05:30;;;;;;;19.13;7.25;;;;;;;-148.88;61.97;75691.91;5035701;28;20130;-89
2022/05/14 09:07:55;;;;;;;20.50;7.20;;;;;;;-148.88;62.63;75700.03;5018900;28;20029;-88
2022/05/14 09:10:27;;;;;;;21.75;7.38;;;;;;;-148.88;62.36;75687.84;5036775;28;20021;-86
2022/05/14 09:12:57;;;;;;;17.25;6.75;;;;;;;-148.88;61.60;75649.25;5019643;28;20033;-86
2022/05/14 09:15:26;;;;;;;18.45;6.40;;;;;;;-148.88;60.39;75643.16;5019924;28;20029;-87
2022/05/14 09:18:10;;;;;;;17.27;5.93;;;;;;;-148.88;60.31;75626.91;5019674;28;20021;-88
2022/05/14 09:20:58;;;;;;;16.52;6.25;;;;;;;-148.88;58.87;75608.63;5021497;28;20441;-90
2022/05/14 09:23:33;;;;;;;16.73;6.60;;;;;;;-148.88;59.54;75608.63;5036741;28;20018;-87
2022/05/14 09:26:12;;;;;;;21.52;6.80;;;;;;;-148.88;58.27;75574.13;5018387;28;20033;-87
2022/05/14 09:28:43;;;;;;;18.20;6.30;;;;;;;-148.88;59.93;75533.50;5036435;28;20385;-86
2022/05/14 09:31:09;;;;;;;21.20;6.13;;;;;;;-148.88;58.46;75543.66;5017992;28;20104;-85
2022/05/14 09:33:50;;;;;;;18.02;6.38;;;;;;;-148.88;58.04;75525.38;5017926;28;20079;-87
2022/05/14 09:36:20;;;;;;;16.58;6.88;;;;;;;-148.88;56.52;75545.69;5018606;28;20056;-85
2022/05/14 09:38:46;;;;;;;19.05;6.47;;;;;;;-148.88;57.23;75574.13;5035761;28;20033;-83
2022/05/14 09:41:21;;;;;;;19.65;6.10;;;;;;;-148.88;57.56;75521.31;5035079;28;20368;-84
2022/05/14 09:43:52;;;;;;;15.88;6.50;;;;;;;-148.88;55.78;75513.19;5017274;28;20554;-84
2022/05/14 09:46:34;;;;;;;21.63;6.35;;;;;;;-148.88;56.34;75505.06;5017572;28;20038;-84
2022/05/14 09:49:05;;;;;;;18.63;5.50;;;;;;;-148.88;54.75;75470.53;5035058;28;20033;-82
2022/05/14 09:51:32;;;;;;;13.98;5.78;;;;;;;-148.88;54.53;75403.50;5016872;28;20037;-82
2022/05/14 09:54:13;;;;;;;18.85;5.43;;;;;;;-148.88;52.90;75385.22;5036607;28;20461;-84
2022/05/14 09:57:04;;;;;;;13.00;5.55;;;;;;;-148.88;52.32;75364.91;5018164;28;20021;-86
2022/05/14 09:59:46;;;;;;;16.05;6.28;;;;;;;-148.88;53.10;75330.38;5035485;28;20386;-83
2022/05/14 10:02:57;;;;;;;17.48;6.43;;;;;;;-148.88;52.14;75314.13;5017333;28;20021;-84
2022/05/14 10:05:40;;;;;;;14.90;5.80;;;;;;;-148.88;51.31;75330.38;4974526;28;20550;-84
2022/05/14 10:08:09;;;;;;;;;;;;;;;-148.88;50.97;75320.22;5016867;28;20043;-84
2022/05/14 10:10:52;;;;;;;11.05;5.38;;;;;;;-148.88;52.39;75438.03;5035662;28;19917;-85
2022/05/14 10:13:41;;;;;;;15.20;5.15;;;;;;;-148.88;53.26;75464.44;5034907;28;20038;-84
2022/05/14 10:16:23;;;;;;;13.75;5.43;;;;;;;-148.88;52.17;75407.56;5035458;28;20025;-82
2022/05/14 10:19:07;;;;;;;14.07;5.20;;;;;;;-148.88;52.32;75381.16;5034503;28;20128;-84
2022/05/14 10:21:44;;;;;;;12.55;5.43;;;;;;;-148.88;53.00;75338.50;5035517;28;20028;-83
2022/05/14 10:27:42;;;;;;;15.80;5.70;;;;;;;-148.88;51.70;75417.72;5037029;28;20120;-85
2022/05/14 10:30:24;;;;;;;13.73;5.95;;;;;;;-148.88;52.32;75464.44;5035495;28;20112;-85
2022/05/14 10:32:56;;;;;;;20.73;6.28;;;;;;;-148.88;54.03;75533.50;5016713;28;20112;-85
2022/05/14 10:35:43;;;;;;;17.48;5.95;;;;;;;-148.88;55.82;75549.75;5034509;28;20022;-85
2022/05/14 10:38:16;;;;;;;15.98;6.00;;;;;;;-148.88;55.59;75503.03;5017304;28;20108;-84
2022/05/14 10:40:46;;;;;;;17.88;5.55;;;;;;;-148.88;53.86;75505.06;5016951;28;20022;-84
2022/05/14 10:43:38;;;;;;;17.23;5.80;;;;;;;-148.88;53.26;75444.13;5034143;28;20036;-83
2022/05/14 10:46:19;;;;;;;16.65;5.68;;;;;;;-148.88;53.38;75440.06;5009826;28;20068;-84
2022/05/14 10:48:54;;;;;;;17.23;5.47;;;;;;;-148.88;52.19;75456.31;5034892;28;20025;-82
2022/05/14 10:51:31;;;;;;;15.27;5.20;;;;;;;-148.88;52.57;75472.56;5017929;28;20025;-83
2022/05/14 10:54:00;;;;;;;17.15;5.70;;;;;;;-148.88;52.81;75446.16;5016820;28;20040;-84
2022/05/14 10:56:38;;;;;;;17.75;4.93;;;;;;;-148.88;51.38;75377.09;5034141;28;20021;-83
2022/05/14 10:59:12;;;;;;;15.70;5.65;;;;;;;-148.88;49.98;75348.66;5017035;28;20029;-84
2022/05/14 11:01:38;;;;;;;15.93;5.28;;;;;;;-148.88;49.62;75322.25;5016479;28;20021;-83
2022/05/14 11:04:21;;;;;;;18.60;5.45;;;;;;;-148.88;48.18;75271.50;5034220;28;20437;-84
2022/05/14 11:06:57;;;;;;;16.13;4.88;;;;;;;-148.88;47.67;75236.97;5033809;28;20032;-83
2022/05/14 11:09:31;;;;;;;12.70;4.35;;;;;;;-148.88;45.67;75169.94;5016426;28;20471;-83
2022/05/14 11:11:59;;;;;;;14.23;4.30;;;;;;;-148.88;46.86;75222.75;5034457;28;20140;-84
2022/05/14 11:14:45;;;;;;;17.17;4.97;;;;;;;-148.88;47.66;75342.56;5033316;28;20036;-83
2022/05/14 11:17:24;;;;;;;14.20;4.63;;;;;;;-148.88;47.71;75303.97;5034118;28;20120;-84
2022/05/14 11:20:06;;;;;;;17.52;4.95;;;;;;;-148.88;47.28;75228.84;5034160;28;20398;-84
2022/05/14 11:22:45;;;;;;;16.63;5.32;;;;;;;-148.88;46.21;75245.09;5034762;28;20029;-84
2022/05/14 11:25:12;;;;;;;14.07;4.80;;;;;;;-148.88;47.38;75316.16;5034424;28;20067;-84
2022/05/14 11:27:39;;;;;;;14.93;4.85;;;;;;;-148.88;48.53;75352.72;5033691;28;20022;-83
2022/05/14 11:30:09;;;;;;;13.98;4.78;;;;;;;-148.88;48.74;75299.91;5015905;28;20025;-83
2022/05/14 11:32:52;;;;;;;15.60;4.18;;;;;;;-148.88;47.71;75214.63;5034131;28;20028;-83
2022/05/14 11:35:17;;;;;;;10.30;3.90;;;;;;;-148.88;43.51;75184.16;5016347;28;20156;-85
2022/05/14 11:37:46;;;;;;;16.63;4.00;;;;;;;-148.88;44.36;75167.91;5016100;28;20048;-84
2022/05/14 11:40:20;;;;;;;12.15;3.70;;;;;;;-148.88;42.94;75133.38;5017170;28;20021;-85